Time;durP1;ratioP1;P1;durP2;ratioP2;P2;SDS_P1;SDS_P2;PMS_P1;PMS_P2;Temp;Humidity;BMP_temperature;BMP_pressure;BME280_temperature;BME280_humidity;BME280_pressure;Samples;Min_cycle;Max_cycle;Signal;HPM_P1;HPM_P2
2023/02/28 04:49:00;;;;;;;5.13;3.33;;;;;;;-8.20;76.37;99042.47;5128806;27;20394;-68
2023/02/28 04:51:26;;;;;;;7.30;3.05;;;;;;;-8.16;75.95;99042.09;5108984;28;20417;-68
2023/02/28 04:53:52;;;;;;;8.02;4.10;;;;;;;-8.07;75.80;99028.47;5107712;28;20055;-68
2023/02/28 04:56:18;;;;;;;11.25;4.30;;;;;;;-7.97;76.21;99022.53;5108939;28;20036;-67
2023/02/28 04:58:44;;;;;;;5.70;3.28;;;;;;;-7.82;75.04;99016.94;5091006;28;20055;-66
2023/02/28 05:01:23;;;;;;;6.60;3.60;;;;;;;-7.76;74.61;99013.03;5107710;28;20031;-64
2023/02/28 05:03:50;;;;;;;7.55;4.20;;;;;;;-7.66;74.52;99006.16;5107556;28;20063;-65
2023/02/28 05:06:16;;;;;;;6.20;3.63;;;;;;;-7.53;73.93;99008.50;5108691;28;20086;-65
2023/02/28 05:08:43;;;;;;;6.55;3.60;;;;;;;-7.50;72.89;99005.66;5108849;28;20058;-65
2023/02/28 05:11:35;;;;;;;5.28;3.30;;;;;;;-7.37;72.28;99008.00;5073055;28;20480;-68
2023/02/28 05:14:03;;;;;;;6.18;3.10;;;;;;;-7.29;72.59;98987.56;5102672;28;20138;-67
2023/02/28 05:16:29;;;;;;;8.63;3.80;;;;;;;-7.19;72.27;99001.25;5107559;28;20031;-61
2023/02/28 05:18:55;;;;;;;7.63;3.60;;;;;;;-7.12;71.77;98989.50;5108741;28;20044;-66
2023/02/28 05:21:20;;;;;;;6.90;3.70;;;;;;;-7.09;71.21;98994.38;5108868;28;20044;-66
2023/02/28 05:23:46;;;;;;;6.57;3.92;;;;;;;-6.99;70.47;98983.25;5109031;28;20433;-68
2023/02/28 05:26:11;;;;;;;8.07;4.22;;;;;;;-6.90;70.24;98975.50;5108668;28;20451;-65
2023/02/28 05:28:37;;;;;;;8.27;3.72;;;;;;;-6.84;69.90;98963.84;5108489;28;20085;-65
2023/02/28 05:31:03;;;;;;;6.45;3.65;;;;;;;-6.78;69.96;98959.91;5108216;28;20044;-66
2023/02/28 05:33:28;;;;;;;6.32;3.38;;;;;;;-6.69;69.40;98956.50;5108757;28;20108;-62
2023/02/28 05:35:54;;;;;;;4.88;3.20;;;;;;;-6.69;69.36;98949.59;5108257;28;20040;-66
2023/02/28 05:38:20;;;;;;;5.38;3.67;;;;;;;-6.69;69.05;98951.34;5108267;28;20051;-65
2023/02/28 05:40:45;;;;;;;7.22;4.05;;;;;;;-6.54;68.56;98946.56;5107757;28;20054;-66
2023/02/28 05:43:11;;;;;;;7.28;3.85;;;;;;;-6.33;67.78;98947.19;5107233;28;20292;-66
2023/02/28 05:45:37;;;;;;;7.13;3.58;;;;;;;-6.03;66.75;98942.75;5106265;28;20047;-67
2023/02/28 05:48:03;;;;;;;7.95;3.83;;;;;;;-5.90;66.27;98929.50;5106006;28;20055;-64
2023/02/28 05:50:29;;;;;;;5.50;3.42;;;;;;;-5.77;65.99;98920.44;5099644;28;20042;-66
2023/02/28 05:52:54;;;;;;;5.95;3.40;;;;;;;-5.58;65.33;98914.38;5102378;28;20505;-66
2023/02/28 05:55:20;;;;;;;7.05;3.92;;;;;;;-5.46;64.23;98909.81;5084748;28;20042;-66
2023/02/28 05:57:46;;;;;;;5.82;3.53;;;;;;;-5.46;63.92;98886.56;5102197;28;20074;-65
2023/02/28 06:00:14;;;;;;;4.70;3.45;;;;;;;-5.44;64.01;98881.22;5089250;28;20123;-67
2023/02/28 06:02:40;;;;;;;7.15;3.97;;;;;;;-5.45;64.00;98901.09;5089150;28;20132;-66
2023/02/28 06:05:13;;;;;;;6.20;3.90;;;;;;;-5.27;63.14;98895.91;5089216;28;20452;-68
2023/02/28 06:07:39;;;;;;;6.57;3.83;;;;;;;-5.00;63.28;98889.03;5088203;28;20067;-66
2023/02/28 06:10:05;;;;;;;4.97;3.72;;;;;;;-4.93;62.15;98883.13;5069980;28;20505;-67
2023/02/28 06:12:31;;;;;;;5.82;3.67;;;;;;;-4.88;61.57;98880.91;5086682;28;20036;-71
2023/02/28 06:14:57;;;;;;;6.22;3.58;;;;;;;-4.89;61.38;98868.91;5072312;28;20054;-72
2023/02/28 06:17:23;;;;;;;7.05;3.53;;;;;;;-4.79;60.92;98871.44;5038704;28;20036;-64
2023/02/28 06:19:49;;;;;;;5.13;2.90;;;;;;;-4.45;61.26;98871.44;5089698;28;20036;-66
2023/02/28 06:22:15;;;;;;;8.23;3.67;;;;;;;-4.32;59.69;98868.47;5088961;28;20050;-65
2023/02/28 06:24:40;;;;;;;6.70;3.17;;;;;;;-4.39;60.35;98859.69;5088494;28;20047;-65
2023/02/28 06:27:06;;;;;;;5.80;3.05;;;;;;;-4.43;60.67;98853.19;5090651;28;20052;-66
2023/02/28 06:29:33;;;;;;;4.00;3.13;;;;;;;-4.22;60.01;98834.69;5093135;28;20062;-67
2023/02/28 06:31:59;;;;;;;6.63;3.72;;;;;;;-4.19;59.80;98829.19;5090565;28;20047;-66
2023/02/28 06:34:24;;;;;;;5.05;3.17;;;;;;;-4.46;59.74;98804.34;5091049;28;20085;-64
2023/02/28 06:36:51;;;;;;;5.78;3.65;;;;;;;-4.15;59.53;98808.03;5092779;28;20071;-66
2023/02/28 06:39:17;;;;;;;4.80;3.10;;;;;;;-3.83;59.76;98816.03;5093085;28;20047;-65
2023/02/28 06:41:45;;;;;;;4.82;3.00;;;;;;;-3.62;59.08;98815.56;5092432;28;20024;-64
2023/02/28 06:44:16;;;;;;;5.47;3.10;;;;;;;-3.50;58.22;98799.56;5075202;28;20071;-64
2023/02/28 06:46:42;;;;;;;9.32;3.38;;;;;;;-3.38;58.66;98788.84;5092513;28;20051;-65
2023/02/28 06:49:09;;;;;;;6.72;3.78;;;;;;;-3.47;58.74;98781.09;5093225;28;20052;-64
2023/02/28 06:51:41;;;;;;;5.50;3.47;;;;;;;-3.37;58.17;98785.31;5091575;28;20512;-65
2023/02/28 06:54:10;;;;;;;4.50;3.22;;;;;;;-3.34;58.67;98769.44;5074458;28;20040;-64
2023/02/28 06:56:36;;;;;;;4.70;3.10;;;;;;;-3.30;58.48;98775.91;5091666;28;20455;-66
2023/02/28 06:59:03;;;;;;;4.82;3.03;;;;;;;-3.09;58.65;98770.19;5091099;28;20110;-67
2023/02/28 07:01:29;;;;;;;6.43;3.20;;;;;;;-3.02;57.95;98755.63;5091133;28;20078;-68
2023/02/28 07:03:54;;;;;;;4.22;3.40;;;;;;;-2.88;57.50;98759.28;5091556;28;20068;-67
2023/02/28 07:06:22;;;;;;;4.95;3.47;;;;;;;-2.83;57.53;98759.59;5053446;28;20578;-68
2023/02/28 07:08:49;;;;;;;4.63;3.38;;;;;;;-3.09;58.52;98752.88;5089341;28;20048;-69
2023/02/28 07:11:15;;;;;;;4.22;2.97;;;;;;;-2.91;58.96;98744.91;5090165;28;20142;-65
2023/02/28 07:13:40;;;;;;;5.40;3.17;;;;;;;-2.75;58.23;98738.84;5090562;28;20040;-66
2023/02/28 07:16:09;;;;;;;5.13;2.97;;;;;;;-2.67;58.43;98738.00;5090695;28;20067;-64
2023/02/28 07:18:35;;;;;;;5.45;3.17;;;;;;;-2.71;58.43;98734.13;5088029;28;20040;-66
2023/02/28 07:21:03;;;;;;;4.22;2.85;;;;;;;-2.47;58.56;98743.56;5086708;28;20035;-67
2023/02/28 07:23:29;;;;;;;4.28;3.08;;;;;;;-2.42;57.93;98726.53;5089451;28;20048;-66
2023/02/28 07:25:54;;;;;;;3.65;2.58;;;;;;;-2.40;58.33;98724.56;5091676;28;20047;-68
2023/02/28 07:28:20;;;;;;;8.40;3.47;;;;;;;-2.35;58.69;98729.25;5089308;28;20051;-66
2023/02/28 07:30:46;;;;;;;5.80;3.47;;;;;;;-2.30;58.50;98730.34;5087670;28;20528;-67
2023/02/28 07:33:11;;;;;;;4.60;2.65;;;;;;;-2.13;58.41;98722.47;5090423;28;20101;-67
2023/02/28 07:35:37;;;;;;;4.82;3.42;;;;;;;-2.26;58.87;98719.63;5070529;28;20742;-68
2023/02/28 07:38:03;;;;;;;4.35;3.20;;;;;;;-2.19;59.23;98721.38;5090787;28;20055;-67
2023/02/28 07:40:31;;;;;;;8.52;3.20;;;;;;;-2.10;58.84;98714.34;5090395;28;20446;-68
2023/02/28 07:42:59;;;;;;;4.72;3.13;;;;;;;-1.96;59.17;98716.19;5092942;28;20061;-67
2023/02/28 07:45:26;;;;;;;6.35;2.95;;;;;;;-1.85;58.92;98723.59;5088013;28;20044;-68
2023/02/28 07:47:52;;;;;;;5.20;3.38;;;;;;;-1.80;58.83;98715.25;5086211;28;20146;-68
2023/02/28 07:50:18;;;;;;;6.93;3.63;;;;;;;-1.81;58.77;98716.25;5088735;28;20379;-69
2023/02/28 07:52:44;;;;;;;8.25;3.22;;;;;;;-1.84;59.14;98703.59;5072811;28;20063;-63
2023/02/28 07:55:10;;;;;;;5.63;3.40;;;;;;;-1.76;59.03;98700.94;5038062;28;20426;-69
2023/02/28 07:57:36;;;;;;;6.85;3.35;;;;;;;-1.73;59.23;98697.19;5089274;28;20119;-70
2023/02/28 08:00:06;;;;;;;6.60;3.20;;;;;;;-1.67;58.88;98686.09;5089271;28;20565;-70
2023/02/28 08:02:37;;;;;;;5.88;3.33;;;;;;;-1.84;59.69;98680.22;5089067;28;20128;-68
2023/02/28 08:05:03;;;;;;;4.85;2.90;;;;;;;-1.75;59.55;98666.19;5088763;28;20150;-65
2023/02/28 08:07:28;;;;;;;5.25;3.17;;;;;;;-1.68;59.90;98661.06;5089707;28;20139;-68
2023/02/28 08:09:54;;;;;;;7.30;3.67;;;;;;;-1.72;59.76;98658.03;5091277;28;20040;-70
2023/02/28 08:12:20;;;;;;;7.40;4.10;;;;;;;-1.57;59.55;98665.03;5089735;28;20490;-74
2023/02/28 08:14:46;;;;;;;5.47;3.70;;;;;;;-1.48;59.48;98653.59;5088755;28;20151;-71
2023/02/28 08:17:12;;;;;;;7.00;3.30;;;;;;;-1.23;59.33;98648.94;5090855;28;20044;-64
2023/02/28 08:19:38;;;;;;;5.43;3.15;;;;;;;-1.20;58.77;98666.78;5089782;28;20074;-56
2023/02/28 08:22:03;;;;;;;29.88;9.43;;;;;;;-0.01;89.75;98714.22;5085950;28;20040;-66
2023/02/28 08:24:30;;;;;;;33.15;9.80;;;;;;;1.55;91.41;98723.53;5069243;28;20141;-61
2023/02/28 08:26:56;;;;;;;6.22;3.08;;;;;;;0.99;56.33;98715.81;5070762;28;20453;-68
2023/02/28 08:29:22;;;;;;;7.57;3.33;;;;;;;0.30;57.56;98721.75;5087117;28;20135;-71
2023/02/28 08:31:48;;;;;;;5.57;3.30;;;;;;;-0.24;57.63;98717.00;5039749;28;21750;-67
2023/02/28 08:34:15;;;;;;;5.63;3.60;;;;;;;-0.50;58.34;98717.50;5090697;28;20077;-64
2023/02/28 08:36:42;;;;;;;4.88;3.20;;;;;;;-0.67;58.55;98703.91;5090676;28;20424;-64
2023/02/28 08:39:09;;;;;;;6.47;3.10;;;;;;;-1.03;59.46;98702.03;5090408;28;20072;-66
2023/02/28 08:41:34;;;;;;;5.70;3.20;;;;;;;-1.15;60.21;98693.03;5090931;28;20043;-66
2023/02/28 08:44:00;;;;;;;6.88;3.30;;;;;;;-1.22;60.29;98682.56;5089382;28;20033;-66
2023/02/28 08:46:26;;;;;;;5.53;3.72;;;;;;;-1.35;60.60;98673.75;5089477;28;20489;-66
2023/02/28 08:48:53;;;;;;;5.03;3.30;;;;;;;-1.29;60.40;98675.66;5090511;28;20086;-66
2023/02/28 08:51:25;;;;;;;4.68;3.17;;;;;;;-1.32;60.98;98681.19;5089450;28;20036;-67
2023/02/28 08:53:53;;;;;;;4.78;2.88;;;;;;;-1.24;60.56;98666.31;5088970;28;20607;-67
2023/02/28 08:56:19;;;;;;;5.32;3.50;;;;;;;-1.17;60.32;98663.84;5087490;28;20127;-66
2023/02/28 08:58:45;;;;;;;5.13;2.90;;;;;;;-1.17;60.17;98653.44;5081506;28;20043;-67
2023/02/28 09:01:16;;;;;;;5.53;3.28;;;;;;;-1.23;60.52;98656.75;5088878;28;20036;-63
2023/02/28 09:03:43;;;;;;;4.28;2.78;;;;;;;-1.25;60.41;98643.13;5090618;28;20044;-69
2023/02/28 09:06:09;;;;;;;4.70;2.72;;;;;;;-1.07;59.68;98648.75;5089907;28;20051;-67
2023/02/28 09:08:35;;;;;;;6.03;3.13;;;;;;;-1.03;59.99;98639.63;5055913;28;20044;-66
2023/02/28 09:11:02;;;;;;;3.78;2.80;;;;;;;-1.17;60.34;98630.81;5091315;28;20050;-69
2023/02/28 09:13:29;;;;;;;5.15;2.95;;;;;;;-1.24;60.78;98635.13;5088111;28;20040;-67
2023/02/28 09:15:57;;;;;;;8.48;3.30;;;;;;;-1.12;60.50;98642.47;5089003;28;20039;-65
2023/02/28 09:18:23;;;;;;;4.90;3.10;;;;;;;-1.16;60.81;98645.44;5088327;28;20059;-68
2023/02/28 09:20:50;;;;;;;4.75;3.03;;;;;;;-1.13;61.01;98657.28;5089191;28;20501;-72
2023/02/28 09:23:16;;;;;;;3.45;2.47;;;;;;;-1.15;60.78;98652.28;5072409;28;20469;-67
2023/02/28 09:25:50;;;;;;;7.50;3.42;;;;;;;-1.10;60.50;98646.50;5089710;28;20536;-68
2023/02/28 09:28:16;;;;;;;6.07;3.17;;;;;;;-1.21;60.63;98649.56;5090424;28;20052;-68
2023/02/28 09:30:45;;;;;;;4.47;2.72;;;;;;;-1.17;61.40;98635.22;5089482;28;20036;-67
2023/02/28 09:33:11;;;;;;;3.67;2.60;;;;;;;-1.07;60.87;98627.94;5088442;28;20066;-65
2023/02/28 09:35:38;;;;;;;5.03;2.97;;;;;;;-0.98;60.71;98606.03;5094173;28;20040;-69
2023/02/28 09:38:05;;;;;;;4.95;3.20;;;;;;;-1.07;61.23;98611.53;5092816;28;20413;-66
2023/02/28 09:40:31;;;;;;;5.28;3.05;;;;;;;-1.00;60.62;98615.00;5092631;28;20055;-67
2023/02/28 09:42:58;;;;;;;4.40;3.17;;;;;;;-1.11;61.31;98599.88;5092976;28;20089;-67
2023/02/28 09:45:26;;;;;;;4.22;2.53;;;;;;;-1.16;61.19;98603.81;5094002;28;20044;-66
2023/02/28 09:47:55;;;;;;;4.25;2.85;;;;;;;-1.28;62.00;98592.28;5092245;28;20139;-69
2023/02/28 09:50:56;;;;;;;4.10;2.83;;;;;;;-1.10;61.98;98596.28;5094696;28;20036;-67
2023/02/28 09:53:34;;;;;;;9.60;3.35;;;;;;;-0.97;61.45;98575.63;5014658;28;20057;-69
2023/02/28 09:56:28;;;;;;;5.15;3.22;;;;;;;-0.94;61.54;98580.50;5082018;28;20051;-69
2023/02/28 09:59:01;;;;;;;4.80;2.80;;;;;;;-0.95;61.45;98578.84;5079928;28;20056;-70
2023/02/28 10:01:46;;;;;;;4.60;2.63;;;;;;;-0.85;61.58;98582.00;5092808;28;20068;-69
2023/02/28 10:04:30;;;;;;;4.43;3.15;;;;;;;-0.88;61.72;98566.75;5093593;28;20044;-71
2023/02/28 10:06:57;;;;;;;5.35;2.90;;;;;;;-0.89;61.89;98559.09;5091191;28;20052;-66
2023/02/28 10:09:26;;;;;;;7.22;3.63;;;;;;;-0.87;62.02;98551.94;5091026;28;20062;-67
2023/02/28 10:11:54;;;;;;;4.70;3.00;;;;;;;-0.87;62.00;98555.34;5092562;28;20048;-66
2023/02/28 10:14:22;;;;;;;4.43;3.00;;;;;;;-0.82;61.61;98547.78;5093272;28;20032;-66
2023/02/28 10:17:09;;;;;;;7.38;3.45;;;;;;;-0.85;62.24;98537.75;5091869;28;20040;-65
2023/02/28 10:20:00;;;;;;;6.22;2.78;;;;;;;-0.73;62.10;98553.69;5092122;28;20044;-67
2023/02/28 10:22:33;;;;;;;;;;;;;;;-0.74;62.20;98546.84;5093871;28;20110;-64
2023/02/28 10:25:16;;;;;;;5.80;3.15;;;;;;;-0.81;62.46;98538.19;5091863;28;19926;-69
2023/02/28 10:27:42;;;;;;;6.03;2.97;;;;;;;-0.89;62.98;98539.09;5093583;28;20519;-67
2023/02/28 10:30:09;;;;;;;4.32;3.05;;;;;;;-0.87;63.00;98541.53;5092108;28;20067;-66
2023/02/28 10:32:38;;;;;;;4.80;3.17;;;;;;;-0.84;63.04;98536.75;5091766;28;20044;-66
2023/02/28 10:35:25;;;;;;;6.78;3.30;;;;;;;-1.06;63.34;98538.53;5093467;28;20184;-65
2023/02/28 10:37:53;;;;;;;8.25;3.20;;;;;;;-1.00;63.34;98532.59;5092617;28;20048;-65
2023/02/28 10:40:22;;;;;;;7.57;3.58;;;;;;;-0.86;63.23;98538.72;5092017;28;20044;-67
2023/02/28 10:42:57;;;;;;;5.55;3.42;;;;;;;-0.84;63.28;98518.53;5092275;28;20032;-63
2023/02/28 10:45:23;;;;;;;5.13;3.78;;;;;;;-0.82;62.96;98516.56;5091376;28;20138;-66
2023/02/28 10:47:55;;;;;;;5.47;3.55;;;;;;;-0.77;63.25;98506.38;5074784;28;20146;-68
2023/02/28 10:50:35;;;;;;;6.72;3.30;;;;;;;-0.84;63.35;98502.94;5075032;28;20036;-63
2023/02/28 10:53:24;;;;;;;6.20;3.90;;;;;;;-0.88;63.88;98516.47;5073135;28;20074;-67
2023/02/28 10:56:06;;;;;;;5.43;3.22;;;;;;;-0.97;63.95;98503.59;5073596;28;20055;-66
2023/02/28 10:58:58;;;;;;;5.53;3.28;;;;;;;-0.85;63.66;98492.69;5091868;28;20044;-68
2023/02/28 11:01:29;;;;;;;4.82;3.58;;;;;;;-0.75;63.41;98485.41;5074486;28;20588;-65
2023/02/28 11:03:57;;;;;;;6.75;3.28;;;;;;;-0.72;63.69;98498.84;5091725;28;20417;-64
2023/02/28 11:06:26;;;;;;;7.25;3.38;;;;;;;-0.72;63.69;98500.63;5091041;28;20039;-64
2023/02/28 11:08:55;;;;;;;5.03;3.30;;;;;;;-0.75;64.36;98496.59;5092649;28;20459;-62
2023/02/28 11:11:26;;;;;;;6.35;3.17;;;;;;;-0.67;65.17;98492.28;5039633;28;20423;-65
2023/02/28 11:13:53;;;;;;;6.05;3.38;;;;;;;-0.56;65.30;98484.78;5088349;28;20440;-65
2023/02/28 11:16:20;;;;;;;5.93;3.83;;;;;;;-0.47;64.39;98493.25;5090185;28;20032;-64
2023/02/28 11:18:52;;;;;;;6.15;3.88;;;;;;;-0.36;64.08;98484.91;5071950;28;20048;-66
2023/02/28 11:21:20;;;;;;;5.75;4.00;;;;;;;-0.35;64.01;98483.13;5072148;28;20044;-65
2023/02/28 11:23:49;;;;;;;4.88;3.50;;;;;;;-0.26;64.55;98487.19;5089072;28;20510;-64
2023/02/28 11:26:36;;;;;;;7.05;3.70;;;;;;;-0.30;65.50;98478.13;5092576;28;20394;-66
2023/02/28 11:29:12;;;;;;;6.25;3.83;;;;;;;-0.22;66.36;98469.38;5091755;28;20139;-65
2023/02/28 11:31:38;;;;;;;7.72;4.40;;;;;;;-0.38;67.09;98467.84;5090934;28;20452;-64
2023/02/28 11:34:23;;;;;;;5.22;3.35;;;;;;;-0.27;67.62;98468.13;5091793;28;20036;-65
2023/02/28 11:36:49;;;;;;;5.65;3.70;;;;;;;-0.25;68.14;98457.53;5091029;28;20130;-65
2023/02/28 11:39:15;;;;;;;7.60;3.75;;;;;;;-0.20;68.41;98460.41;5090061;28;20123;-65
2023/02/28 11:41:50;;;;;;;8.57;3.58;;;;;;;-0.20;67.61;98449.19;5090486;28;20044;-64
2023/02/28 11:44:25;;;;;;;5.25;3.53;;;;;;;-0.35;67.39;98454.50;5089899;28;20032;-65
2023/02/28 11:46:54;;;;;;;5.97;4.05;;;;;;;-0.43;68.32;98442.41;5090605;28;20043;-65
2023/02/28 11:49:32;;;;;;;7.85;4.40;;;;;;;-0.34;69.59;98441.25;5090022;28;20047;-64
2023/02/28 11:52:29;;;;;;;6.65;4.35;;;;;;;-0.32;67.92;98436.69;5091892;28;20127;-62
2023/02/28 11:54:57;;;;;;;7.13;3.97;;;;;;;-0.41;69.19;98429.19;5091362;28;20035;-66
2023/02/28 11:57:32;;;;;;;6.22;3.83;;;;;;;-0.37;69.56;98433.84;5089819;28;20048;-63
2023/02/28 12:00:13;;;;;;;7.47;4.25;;;;;;;-0.38;68.84;98424.41;5091346;28;20043;-64
2023/02/28 12:03:04;;;;;;;5.65;3.35;;;;;;;-0.44;69.54;98426.97;5073085;28;20489;-64
2023/02/28 12:05:36;;;;;;;9.80;4.30;;;;;;;-0.50;70.59;98423.31;5081963;28;20068;-64
2023/02/28 12:08:14;;;;;;;6.47;4.03;;;;;;;-0.54;70.71;98422.09;5090008;28;20116;-64
2023/02/28 12:11:01;;;;;;;7.60;4.72;;;;;;;-0.66;70.88;98418.41;5089766;28;20473;-64
2023/02/28 12:13:46;;;;;;;6.38;4.60;;;;;;;-0.76;71.72;98418.75;5091159;28;20052;-64
2023/02/28 12:16:20;;;;;;;5.45;4.18;;;;;;;-0.77;72.19;98424.91;5090144;28;20044;-64
2023/02/28 12:18:56;;;;;;;8.35;3.97;;;;;;;-0.85;73.32;98409.44;5091164;28;20052;-63
2023/02/28 12:21:40;;;;;;;6.93;3.85;;;;;;;-0.75;72.62;98420.34;5073309;28;20040;-63
2023/02/28 12:24:26;;;;;;;7.00;4.13;;;;;;;-0.78;72.52;98416.31;5090918;28;20073;-64
2023/02/28 12:26:53;;;;;;;8.23;4.18;;;;;;;-0.79;72.66;98393.09;5073149;28;20089;-63
2023/02/28 12:29:23;;;;;;;6.43;3.80;;;;;;;-0.69;71.85;98398.75;5089618;28;20036;-65
2023/02/28 12:31:53;;;;;;;5.47;3.55;;;;;;;-0.85;72.02;98393.81;5089881;28;20052;-63
2023/02/28 12:34:23;;;;;;;6.68;4.10;;;;;;;-0.80;72.56;98389.66;5069250;28;20067;-64
2023/02/28 12:36:51;;;;;;;6.43;3.42;;;;;;;-0.78;72.14;98379.88;5070700;28;20047;-64
2023/02/28 12:39:27;;;;;;;5.82;3.70;;;;;;;-0.71;71.73;98377.31;5082221;28;20044;-63
2023/02/28 12:41:59;;;;;;;5.40;4.05;;;;;;;-0.79;71.73;98373.06;5090976;28;20520;-63
2023/02/28 12:44:34;;;;;;;5.78;3.50;;;;;;;-0.78;71.92;98353.84;5089150;28;20447;-63
2023/02/28 12:47:04;;;;;;;5.32;3.67;;;;;;;-0.74;71.91;98356.88;5089552;28;20043;-64
2023/02/28 12:49:58;;;;;;;6.90;4.35;;;;;;;-0.72;71.93;98354.91;5091044;28;20118;-64
2023/02/28 12:52:54;;;;;;;8.82;4.55;;;;;;;-0.63;71.52;98348.56;5090568;28;20050;-64
2023/02/28 12:55:32;;;;;;;5.68;4.18;;;;;;;-0.70;71.66;98347.72;5071428;28;20048;-67
2023/02/28 12:58:19;;;;;;;6.00;3.90;;;;;;;-0.77;71.70;98341.66;5089920;28;20085;-63
2023/02/28 13:01:10;;;;;;;5.93;4.03;;;;;;;-0.72;71.91;98332.28;5089400;28;20053;-63
2023/02/28 13:04:04;;;;;;;5.40;3.63;;;;;;;-0.71;72.09;98333.91;5090841;28;20040;-61
2023/02/28 13:06:41;;;;;;;4.35;3.30;;;;;;;-0.58;71.49;98332.38;5069845;28;20682;-63
2023/02/28 13:09:12;;;;;;;9.20;3.90;;;;;;;-0.60;71.95;98337.75;5080556;28;20051;-65
2023/02/28 13:11:40;;;;;;;;;;;;;;;-0.56;71.64;98340.78;5076735;28;20572;-61
2023/02/28 13:14:25;;;;;;;7.57;3.53;;;;;;;-0.52;71.33;98334.22;5094525;28;19919;-65
2023/02/28 13:17:01;;;;;;;6.45;3.60;;;;;;;-0.60;71.52;98329.94;5093177;28;20134;-65
2023/02/28 13:19:30;;;;;;;5.13;3.50;;;;;;;-0.70;72.24;98326.91;5074710;28;20040;-63
2023/02/28 13:21:56;;;;;;;5.55;3.47;;;;;;;-0.74;72.23;98323.06;5092091;28;20524;-65
2023/02/28 13:24:34;;;;;;;4.80;3.17;;;;;;;-0.70;72.52;98322.50;5093813;28;20032;-64
2023/02/28 13:26:59;;;;;;;7.50;3.95;;;;;;;-0.64;72.24;98315.72;5094065;28;20048;-64
2023/02/28 13:29:35;;;;;;;7.18;3.85;;;;;;;-0.62;71.89;98300.69;5094185;28;20051;-64
2023/02/28 13:32:07;;;;;;;8.55;3.67;;;;;;;-0.57;71.95;98306.13;5094513;28;20557;-64
2023/02/28 13:34:36;;;;;;;4.43;3.03;;;;;;;-0.52;72.08;98282.16;5093881;28;20600;-65
2023/02/28 13:37:21;;;;;;;5.68;3.28;;;;;;;-0.49;72.21;98289.56;5093174;28;20051;-64
2023/02/28 13:39:54;;;;;;;7.85;3.70;;;;;;;-0.55;72.44;98290.34;5093939;28;20520;-64
2023/02/28 13:42:55;;;;;;;8.43;3.92;;;;;;;-0.69;72.90;98295.47;5092708;28;20074;-61
2023/02/28 13:45:22;;;;;;;5.70;3.83;;;;;;;-0.64;72.76;98307.13;5051261;28;20041;-63
2023/02/28 13:48:02;;;;;;;7.20;3.28;;;;;;;-0.63;73.12;98296.50;5085212;28;20056;-64
2023/02/28 13:50:37;;;;;;;4.55;3.45;;;;;;;-0.66;73.17;98293.47;5076324;28;20146;-63
2023/02/28 13:53:26;;;;;;;4.85;3.25;;;;;;;-0.56;72.55;98302.56;5092759;28;20083;-64
2023/02/28 13:56:10;;;;;;;5.82;3.55;;;;;;;-0.63;72.81;98301.69;5092382;28;20036;-64
2023/02/28 13:58:45;;;;;;;6.13;3.47;;;;;;;-0.50;72.88;98308.78;5092570;28;20395;-65
2023/02/28 14:01:35;;;;;;;5.93;3.55;;;;;;;-0.59;72.93;98299.50;5092686;28;20048;-63
2023/02/28 14:04:38;;;;;;;5.10;3.28;;;;;;;-0.65;73.22;98302.88;5075462;28;20398;-64
2023/02/28 14:07:04;;;;;;;5.47;3.40;;;;;;;-0.58;73.33;98298.53;5059119;28;20043;-65
2023/02/28 14:09:39;;;;;;;5.82;3.47;;;;;;;-0.60;72.99;98297.91;5092205;28;20036;-65
2023/02/28 14:12:42;;;;;;;7.78;3.67;;;;;;;-0.55;73.24;98295.53;5092207;28;20386;-64
2023/02/28 14:15:40;;;;;;;6.70;4.25;;;;;;;-0.54;73.52;98290.13;5092222;28;20135;-66
2023/02/28 14:18:17;;;;;;;8.60;3.83;;;;;;;-0.56;73.87;98283.50;5085318;28;20058;-64
2023/02/28 14:20:44;;;;;;;6.80;3.85;;;;;;;-0.66;74.65;98278.66;5091711;28;20139;-65
2023/02/28 14:23:17;;;;;;;7.95;3.80;;;;;;;-0.69;74.88;98266.03;5092233;28;20521;-64
2023/02/28 14:25:51;;;;;;;6.65;3.55;;;;;;;-0.64;74.39;98258.47;5093520;28;20044;-63
2023/02/28 14:29:01;;;;;;;5.72;3.90;;;;;;;-0.62;74.77;98261.66;5093398;28;20452;-64
2023/02/28 14:32:11;;;;;;;7.18;3.88;;;;;;;-0.58;74.65;98265.50;5093177;28;20047;-65
2023/02/28 14:34:53;;;;;;;6.93;4.22;;;;;;;-0.69;74.40;98246.00;5046715;28;20040;-66
2023/02/28 14:37:25;;;;;;;7.65;4.70;;;;;;;-0.62;74.55;98245.25;5092187;28;20523;-64
2023/02/28 14:39:51;;;;;;;6.97;4.47;;;;;;;-0.62;74.83;98255.66;5093109;28;20032;-64
2023/02/28 14:42:32;;;;;;;6.88;4.20;;;;;;;-0.62;74.59;98253.03;5093102;28;20528;-64
2023/02/28 14:44:58;;;;;;;5.18;3.63;;;;;;;-0.74;75.12;98248.38;5091784;28;20573;-63
2023/02/28 14:47:30;;;;;;;9.80;4.65;;;;;;;-0.65;75.22;98250.84;5074452;28;20139;-65
2023/02/28 14:49:57;;;;;;;7.32;4.20;;;;;;;-0.68;75.62;98246.81;5092999;28;20048;-65
2023/02/28 14:52:29;;;;;;;6.00;4.03;;;;;;;-0.69;75.68;98247.81;5092987;28;20056;-63
2023/02/28 14:55:03;;;;;;;7.57;4.10;;;;;;;-0.67;75.40;98258.06;5092752;28;20483;-64
2023/02/28 14:57:40;;;;;;;5.85;4.18;;;;;;;-0.59;75.41;98256.09;5092909;28;20052;-64
2023/02/28 15:00:22;;;;;;;7.85;3.83;;;;;;;-0.56;75.31;98253.09;5092549;28;20047;-63
2023/02/28 15:02:48;;;;;;;9.73;4.20;;;;;;;-0.50;75.12;98259.31;5092677;28;20413;-63
2023/02/28 15:05:16;;;;;;;7.40;3.78;;;;;;;-0.47;75.31;98257.16;5091464;28;20032;-66
2023/02/28 15:07:42;;;;;;;5.97;3.50;;;;;;;-0.35;74.73;98254.00;5092386;28;20047;-64
2023/02/28 15:10:23;;;;;;;4.90;3.20;;;;;;;-0.37;74.76;98246.34;5092395;28;20032;-64
2023/02/28 15:12:57;;;;;;;7.63;3.20;;;;;;;-0.49;75.11;98243.50;5074203;28;20052;-63
2023/02/28 15:15:55;;;;;;;5.05;3.33;;;;;;;-0.43;75.19;98236.72;5090950;28;20035;-64
2023/02/28 15:18:41;;;;;;;7.43;3.67;;;;;;;-0.39;75.17;98237.94;5091990;28;20087;-68
2023/02/28 15:21:24;;;;;;;6.22;3.97;;;;;;;-0.36;75.04;98239.34;5092067;28;20036;-63
2023/02/28 15:24:15;;;;;;;9.10;3.70;;;;;;;-0.32;74.91;98245.78;5092614;28;20405;-64
2023/02/28 15:26:41;;;;;;;;;;;;;;;-0.27;74.83;98238.97;5092403;28;20040;-65
2023/02/28 15:29:14;;;;;;;5.45;3.63;;;;;;;-0.30;75.20;98241.16;5074128;28;19955;-63
2023/02/28 15:31:44;;;;;;;5.78;3.55;;;;;;;-0.27;74.99;98232.97;5089631;28;20036;-63
2023/02/28 15:34:22;;;;;;;6.07;3.13;;;;;;;-0.22;74.73;98235.00;5085527;28;20493;-64
2023/02/28 15:36:48;;;;;;;4.25;3.10;;;;;;;-0.22;74.90;98225.38;5090178;28;20066;-64
2023/02/28 15:39:20;;;;;;;4.75;3.40;;;;;;;-0.21;74.86;98231.38;5091421;28;20501;-63
2023/02/28 15:41:45;;;;;;;4.97;3.72;;;;;;;-0.17;74.94;98228.19;5091513;28;20393;-64
2023/02/28 15:44:29;;;;;;;5.10;2.95;;;;;;;-0.12;74.71;98227.59;5090212;28;20035;-64
2023/02/28 15:47:06;;;;;;;3.85;3.08;;;;;;;-0.08;74.64;98221.81;5091478;28;20518;-65
2023/02/28 15:49:44;;;;;;;4.07;2.90;;;;;;;0.00;75.23;98226.03;5090000;28;20043;-63
2023/02/28 15:52:16;;;;;;;4.22;2.97;;;;;;;0.03;74.68;98233.47;5087009;28;20088;-63
2023/02/28 15:54:44;;;;;;;6.30;3.22;;;;;;;0.03;75.24;98233.47;5090164;28;20048;-63
2023/02/28 15:57:39;;;;;;;9.30;4.80;;;;;;;0.05;74.88;98228.81;5089906;28;20047;-64
2023/02/28 16:00:09;;;;;;;4.45;3.20;;;;;;;0.10;74.84;98228.25;5060972;28;20133;-63
2023/02/28 16:02:37;;;;;;;3.90;3.17;;;;;;;0.13;75.04;98218.22;5089925;28;20044;-62
2023/02/28 16:05:06;;;;;;;4.07;3.05;;;;;;;0.20;75.08;98220.84;5091215;28;20043;-65
2023/02/28 16:07:32;;;;;;;4.43;2.90;;;;;;;0.20;74.85;98216.41;5091491;28;20055;-61
2023/02/28 16:09:59;;;;;;;4.97;2.97;;;;;;;0.12;75.04;98215.81;5090111;28;20040;-64
2023/02/28 16:12:30;;;;;;;5.65;2.80;;;;;;;0.18;75.22;98209.81;5089572;28;20044;-62
2023/02/28 16:14:58;;;;;;;5.38;3.58;;;;;;;0.18;75.45;98209.81;5090957;28;20036;-63
2023/02/28 16:17:29;;;;;;;3.67;2.97;;;;;;;0.12;75.54;98214.03;5090973;28;20412;-65
2023/02/28 16:19:55;;;;;;;4.30;3.00;;;;;;;0.12;75.40;98208.81;5086243;28;20066;-62
2023/02/28 16:22:21;;;;;;;4.22;3.10;;;;;;;0.19;75.16;98216.63;5088384;28;20139;-67
2023/02/28 16:24:54;;;;;;;6.25;3.58;;;;;;;0.22;76.00;98218.84;5089624;28;20123;-62
2023/02/28 16:27:49;;;;;;;13.70;6.82;;;;;;;0.13;75.89;98215.63;5060384;28;20469;-64
2023/02/28 16:30:26;;;;;;;3.60;3.10;;;;;;;0.14;76.57;98212.00;5087093;28;20094;-63
2023/02/28 16:32:54;;;;;;;7.03;3.65;;;;;;;0.16;76.76;98202.19;5069939;28;20651;-64
2023/02/28 16:35:21;;;;;;;4.28;2.95;;;;;;;0.17;76.62;98206.38;5089032;28;20050;-63
2023/02/28 16:37:47;;;;;;;6.07;3.70;;;;;;;0.15;76.85;98203.19;5072251;28;20035;-63
2023/02/28 16:40:20;;;;;;;6.38;3.67;;;;;;;0.16;77.20;98202.19;5088812;28;20096;-64
2023/02/28 16:42:49;;;;;;;5.13;3.35;;;;;;;0.04;77.11;98200.38;5023325;28;20048;-64
2023/02/28 16:45:21;;;;;;;5.63;4.00;;;;;;;0.04;76.96;98209.00;5090108;28;20546;-67